createdAt,value
2023-05-23T20:42:48.030Z,65.93
2023-05-23T20:45:16.668Z,65.72
2023-05-23T20:47:45.380Z,65.78
2023-05-23T20:50:14.355Z,65.89
2023-05-23T20:52:43.660Z,65.86
2023-05-23T20:55:12.410Z,65.65
2023-05-23T20:57:40.870Z,65.67
2023-05-23T21:00:10.030Z,65.92
2023-05-23T21:02:43.128Z,65.84
2023-05-23T21:05:12.147Z,65.92
2023-05-23T21:07:40.433Z,65.96
2023-05-23T21:10:08.960Z,66.05
2023-05-23T21:12:37.246Z,66.16
2023-05-23T21:15:06.830Z,66.18
2023-05-23T21:17:35.116Z,66.24
2023-05-23T21:20:03.700Z,66.38
2023-05-23T21:22:31.980Z,66.42
2023-05-23T21:25:00.446Z,66.67
2023-05-23T21:27:30.595Z,66.44
2023-05-23T21:29:59.017Z,66.56
2023-05-23T21:32:27.470Z,66.98
2023-05-23T21:34:57.303Z,66.98
2023-05-23T21:37:27.781Z,67.17
2023-05-23T21:39:56.947Z,67.50
2023-05-23T21:42:25.376Z,67.72
2023-05-23T21:44:53.732Z,67.84
2023-05-23T21:47:24.208Z,68.06
2023-05-23T21:49:54.584Z,68.03
2023-05-23T21:52:23.036Z,68.22
2023-05-23T21:54:51.924Z,68.39
2023-05-23T21:57:20.445Z,68.59
2023-05-23T21:59:48.705Z,68.80
2023-05-23T22:02:17.026Z,69.05
2023-05-23T22:04:46.964Z,69.34
2023-05-23T22:07:15.327Z,69.41
2023-05-23T22:09:43.625Z,69.73
2023-05-23T22:12:12.060Z,69.62
2023-05-23T22:14:40.322Z,69.78
2023-05-23T22:17:08.676Z,69.55
2023-05-23T22:19:37.061Z,69.54
2023-05-23T22:22:06.125Z,69.30
2023-05-23T22:24:34.901Z,69.48
2023-05-23T22:27:04.250Z,69.50
2023-05-23T22:29:33.932Z,69.48
2023-05-23T22:32:02.370Z,69.45
2023-05-23T22:34:31.190Z,69.60
2023-05-23T22:37:00.433Z,69.51
2023-05-23T22:39:29.765Z,69.65
2023-05-23T22:41:58.065Z,69.76
2023-05-23T22:44:26.861Z,69.82
2023-05-23T22:46:56.197Z,69.90
2023-05-23T22:49:26.739Z,69.93
2023-05-23T22:51:54.996Z,69.78
2023-05-23T22:54:24.141Z,69.87
2023-05-23T22:56:52.335Z,69.97
2023-05-23T22:59:20.572Z,70.33
2023-05-23T23:01:48.808Z,70.34
2023-05-23T23:04:17.102Z,70.59
2023-05-23T23:06:45.389Z,70.49
2023-05-23T23:09:13.745Z,70.69
2023-05-23T23:11:42.373Z,70.94
2023-05-23T23:14:10.800Z,71.14
2023-05-23T23:16:39.099Z,71.32
2023-05-23T23:19:07.503Z,71.28
2023-05-23T23:21:36.925Z,71.23
2023-05-23T23:24:06.638Z,71.25
2023-05-23T23:26:34.923Z,71.15
2023-05-23T23:29:03.794Z,71.33
2023-05-23T23:31:32.192Z,71.15
2023-05-23T23:34:00.658Z,71.07
2023-05-23T23:36:29.033Z,71.05
2023-05-23T23:38:57.904Z,70.91
2023-05-23T23:41:26.323Z,70.99
2023-05-23T23:43:56.839Z,70.66
2023-05-23T23:46:26.933Z,70.98
2023-05-23T23:48:56.452Z,71.10
2023-05-23T23:51:24.848Z,71.02
2023-05-23T23:53:53.526Z,70.97
2023-05-23T23:56:22.229Z,70.94
2023-05-23T23:58:51.005Z,70.31
